Time;durP1;ratioP1;P1;durP2;ratioP2;P2;SDS_P1;SDS_P2;PMS_P1;PMS_P2;Temp;Humidity;BMP_temperature;BMP_pressure;BME280_temperature;BME280_humidity;BME280_pressure;Samples;Min_cycle;Max_cycle;Signal;HPM_P1;HPM_P2
2022/04/26 03:37:19;;;;;;;4.82;3.20;;;5.80;99.90;;;;;;5036830;28;20068;-64
2022/04/26 03:39:46;;;;;;;4.50;3.55;;;5.80;99.90;;;;;;5036939;28;20037;-70
2022/04/26 03:42:13;;;;;;;5.75;5.18;;;5.80;99.90;;;;;;5035954;28;20098;-65
2022/04/26 03:44:42;;;;;;;5.72;3.60;;;5.80;99.90;;;;;;5035788;28;20042;-64
2022/04/26 03:47:09;;;;;;;6.28;3.40;;;5.80;99.90;;;;;;5037236;28;20254;-68
2022/04/26 03:49:37;;;;;;;5.15;3.45;;;5.80;99.90;;;;;;5049887;28;20636;-65
2022/04/26 03:52:04;;;;;;;6.95;3.97;;;5.80;99.90;;;;;;5025517;28;20046;-67
2022/04/26 03:54:32;;;;;;;5.45;2.80;;;5.80;99.90;;;;;;5028541;28;20127;-69
2022/04/26 03:56:59;;;;;;;8.43;3.35;;;5.80;99.90;;;;;;5044144;28;20037;-65
2022/04/26 03:59:26;;;;;;;4.57;3.60;;;5.80;99.90;;;;;;5032863;28;20073;-65
2022/04/26 04:01:53;;;;;;;5.45;3.65;;;5.80;99.90;;;;;;5029846;28;20049;-68
2022/04/26 04:04:20;;;;;;;5.43;4.88;;;5.80;99.90;;;;;;5028127;28;20049;-65
2022/04/26 04:06:47;;;;;;;3.80;2.88;;;5.80;99.90;;;;;;5030358;28;20140;-66
2022/04/26 04:09:13;;;;;;;5.53;4.38;;;5.80;99.90;;;;;;5028454;28;20045;-67
2022/04/26 04:11:40;;;;;;;5.82;3.13;;;5.80;99.90;;;;;;5028152;28;20052;-66
2022/04/26 04:14:07;;;;;;;6.30;3.28;;;5.80;99.90;;;;;;5026666;28;20181;-66
2022/04/26 04:16:34;;;;;;;5.05;3.10;;;5.80;99.90;;;;;;5025075;28;21404;-69
2022/04/26 04:19:17;;;;;;;5.30;3.42;;;5.80;99.90;;;;;;5028035;28;20045;-68
2022/04/26 04:21:45;;;;;;;4.53;3.30;;;5.80;99.90;;;;;;5028441;28;20049;-66
2022/04/26 04:24:14;;;;;;;4.60;3.53;;;5.80;99.90;;;;;;5023637;28;20053;-64
2022/04/26 04:26:42;;;;;;;7.50;3.80;;;5.80;99.90;;;;;;5027163;28;20821;-70
2022/04/26 04:29:09;;;;;;;4.38;3.53;;;5.80;99.90;;;;;;5013814;28;20737;-67
2022/04/26 04:31:36;;;;;;;4.28;2.90;;;5.90;99.90;;;;;;5029043;28;21414;-69
2022/04/26 04:34:03;;;;;;;8.10;3.25;;;5.80;99.90;;;;;;5033306;28;20060;-67
2022/04/26 04:36:30;;;;;;;6.25;3.97;;;5.80;99.90;;;;;;5040263;28;21496;-64
2022/04/26 04:38:58;;;;;;;9.27;4.40;;;5.80;99.90;;;;;;5024168;28;20063;-64
2022/04/26 04:41:25;;;;;;;8.38;4.50;;;5.80;99.90;;;;;;5030489;28;20684;-67
2022/04/26 04:43:52;;;;;;;4.75;3.70;;;5.80;99.90;;;;;;5021612;28;20128;-68
2022/04/26 04:46:19;;;;;;;6.55;3.50;;;5.80;99.90;;;;;;5033430;28;20094;-67
2022/04/26 04:48:46;;;;;;;3.15;2.60;;;5.80;99.90;;;;;;5020910;28;20056;-68
2022/04/26 04:51:13;;;;;;;8.82;3.83;;;5.90;99.90;;;;;;5039772;28;20045;-64
2022/04/26 04:53:40;;;;;;;3.72;3.42;;;5.90;99.90;;;;;;5031678;28;20143;-67
2022/04/26 04:56:10;;;;;;;7.32;3.78;;;5.90;99.90;;;;;;5028549;28;20049;-66
2022/04/26 04:58:38;;;;;;;;;;;5.90;99.90;;;;;;5052789;28;20069;-68
2022/04/26 05:01:05;;;;;;;11.90;4.20;;;6.00;99.90;;;;;;5029525;28;19925;-70
2022/04/26 05:03:32;;;;;;;5.45;3.88;;;6.00;99.90;;;;;;5029042;28;20041;-71
2022/04/26 05:05:59;;;;;;;5.85;3.42;;;6.10;99.90;;;;;;5024262;28;20136;-69
2022/04/26 05:08:26;;;;;;;10.20;3.58;;;6.10;99.90;;;;;;5011162;28;20938;-66
2022/04/26 05:10:53;;;;;;;13.57;4.72;;;6.10;99.90;;;;;;5024903;28;20057;-67
2022/04/26 05:13:20;;;;;;;6.97;3.40;;;6.20;99.90;;;;;;5027866;28;20430;-69
2022/04/26 05:15:47;;;;;;;4.22;2.85;;;6.20;99.90;;;;;;5044018;28;20045;-70
2022/04/26 05:18:14;;;;;;;5.65;3.38;;;6.20;99.90;;;;;;5026411;28;20086;-65
2022/04/26 05:20:42;;;;;;;7.30;3.55;;;6.20;99.90;;;;;;5025333;28;20064;-68
2022/04/26 05:25:55;;;;;;;9.10;4.00;;;6.10;99.90;;;;;;5027610;28;20041;-64
2022/04/26 05:28:22;;;;;;;6.70;3.40;;;6.10;99.90;;;;;;5027993;28;20067;-63
2022/04/26 05:30:53;;;;;;;6.57;3.92;;;6.00;99.90;;;;;;5025426;28;20180;-65
2022/04/26 05:33:21;;;;;;;5.82;3.53;;;6.10;99.90;;;;;;5028360;28;20097;-67
2022/04/26 05:35:48;;;;;;;4.22;3.10;;;6.20;99.90;;;;;;5027357;28;20053;-68
2022/04/26 05:38:16;;;;;;;4.93;3.30;;;6.20;99.90;;;;;;5024775;28;20053;-64
2022/04/26 05:40:43;;;;;;;10.25;4.30;;;6.30;99.90;;;;;;5026932;28;20126;-67
2022/04/26 05:43:10;;;;;;;11.77;5.78;;;6.30;99.90;;;;;;5033049;28;20059;-63
2022/04/26 05:45:37;;;;;;;10.05;3.88;;;6.30;99.90;;;;;;5032946;28;20130;-66
2022/04/26 05:48:09;;;;;;;6.35;3.03;;;6.40;99.90;;;;;;5030912;28;20049;-65
2022/04/26 05:50:37;;;;;;;6.05;3.58;;;6.50;99.90;;;;;;5033566;28;20068;-63
2022/04/26 05:53:04;;;;;;;12.13;4.40;;;6.60;99.90;;;;;;5029892;28;20049;-64
2022/04/26 05:55:32;;;;;;;3.15;2.50;;;6.70;99.90;;;;;;5032785;28;20048;-67
2022/04/26 05:57:59;;;;;;;3.88;2.83;;;6.80;99.90;;;;;;5033412;28;20950;-65
2022/04/26 06:00:26;;;;;;;5.72;2.60;;;6.90;99.90;;;;;;5027076;28;20037;-67
2022/04/26 06:02:53;;;;;;;7.22;3.83;;;7.10;99.90;;;;;;5028555;28;20148;-68
2022/04/26 06:05:20;;;;;;;4.75;2.50;;;7.20;99.90;;;;;;5026428;28;20077;-68
2022/04/26 06:07:47;;;;;;;4.68;2.22;;;7.30;99.90;;;;;;5024672;28;20155;-69
2022/04/26 06:10:15;;;;;;;6.72;2.78;;;7.40;99.90;;;;;;5029877;28;20049;-64
2022/04/26 06:12:44;;;;;;;3.58;2.55;;;7.40;99.90;;;;;;5035257;28;20060;-67
2022/04/26 06:15:12;;;;;;;3.70;2.47;;;7.40;99.90;;;;;;5037227;28;20787;-66
2022/04/26 06:17:39;;;;;;;5.35;2.70;;;7.40;99.90;;;;;;5036256;28;20107;-63
2022/04/26 06:20:06;;;;;;;3.75;2.50;;;7.30;99.90;;;;;;5035412;28;20048;-67
2022/04/26 06:22:33;;;;;;;3.63;2.60;;;7.20;99.90;;;;;;5037351;28;20886;-70
2022/04/26 06:25:01;;;;;;;5.55;2.30;;;7.30;99.90;;;;;;5034074;28;20438;-65
2022/04/26 06:27:27;;;;;;;3.85;2.58;;;7.30;99.90;;;;;;5032493;28;20110;-65
2022/04/26 06:29:54;;;;;;;3.40;2.97;;;7.50;99.90;;;;;;5028447;28;20142;-67
2022/04/26 06:32:21;;;;;;;4.55;2.80;;;7.60;99.90;;;;;;5028348;28;20063;-67
2022/04/26 06:34:48;;;;;;;5.97;2.92;;;7.70;99.90;;;;;;5035952;28;20048;-67
2022/04/26 06:37:15;;;;;;;5.50;2.78;;;7.70;99.90;;;;;;5037319;28;20503;-68
2022/04/26 06:39:42;;;;;;;2.58;2.25;;;7.70;99.90;;;;;;5033202;28;20057;-70
2022/04/26 06:42:09;;;;;;;2.65;1.52;;;7.70;99.90;;;;;;5034112;28;20152;-66
2022/04/26 06:44:36;;;;;;;2.63;2.22;;;7.70;99.90;;;;;;5024049;28;20483;-66
2022/04/26 06:47:03;;;;;;;6.05;2.72;;;7.70;99.90;;;;;;5034782;28;20497;-67
2022/04/26 06:49:30;;;;;;;5.15;1.73;;;7.80;99.90;;;;;;5036202;28;20149;-67
2022/04/26 06:51:58;;;;;;;5.07;1.95;;;7.80;99.90;;;;;;5036106;28;20146;-67
2022/04/26 06:54:25;;;;;;;3.42;1.80;;;7.90;99.90;;;;;;5033933;28;20060;-67
2022/04/26 06:56:51;;;;;;;4.32;2.10;;;8.00;99.90;;;;;;5033298;28;20052;-66
2022/04/26 06:59:18;;;;;;;2.83;1.10;;;8.00;99.90;;;;;;5034770;28;20064;-68
2022/04/26 07:01:52;;;;;;;2.60;0.90;;;8.00;99.90;;;;;;5029448;28;20102;-70
2022/04/26 07:04:20;;;;;;;1.70;1.10;;;8.00;99.90;;;;;;5027265;28;20061;-67
2022/04/26 07:06:48;;;;;;;2.70;1.75;;;8.10;99.90;;;;;;5029528;28;20060;-68
2022/04/26 07:09:15;;;;;;;1.52;0.93;;;8.20;99.90;;;;;;5032590;28;20140;-67
2022/04/26 07:11:42;;;;;;;4.28;1.58;;;8.30;99.90;;;;;;5035216;28;20057;-67
2022/04/26 07:14:11;;;;;;;5.60;1.10;;;8.40;99.90;;;;;;5033197;28;20053;-70
2022/04/26 07:16:48;;;;;;;2.78;0.93;;;8.40;99.90;;;;;;5035700;28;20036;-64
2022/04/26 07:19:15;;;;;;;0.98;0.98;;;8.50;99.90;;;;;;5033520;28;20171;-64
2022/04/26 07:21:46;;;;;;;3.85;0.80;;;8.60;99.90;;;;;;5033854;28;20064;-66
2022/04/26 07:24:33;;;;;;;2.05;1.00;;;8.70;99.90;;;;;;5033723;28;20140;-71
2022/04/26 07:27:00;;;;;;;;;;;8.80;99.90;;;;;;5031057;28;20151;-67
2022/04/26 07:29:27;;;;;;;1.48;0.68;;;8.90;99.90;;;;;;5024733;28;20472;-69
2022/04/26 07:31:54;;;;;;;2.10;1.02;;;8.80;99.90;;;;;;5031088;28;20139;-64
2022/04/26 07:34:24;;;;;;;4.20;1.33;;;8.70;99.90;;;;;;5029083;28;20105;-67
2022/04/26 07:36:53;;;;;;;2.72;0.73;;;8.70;99.90;;;;;;5030565;28;20041;-66
2022/04/26 07:39:20;;;;;;;2.17;1.17;;;8.70;99.90;;;;;;5030360;28;20281;-66
2022/04/26 07:41:48;;;;;;;1.13;0.77;;;8.70;99.90;;;;;;5028728;28;20206;-64
2022/04/26 07:44:16;;;;;;;1.00;0.70;;;8.80;99.90;;;;;;5023449;28;20051;-67
2022/04/26 07:46:45;;;;;;;1.77;0.90;;;8.90;99.90;;;;;;5034177;28;20129;-67
2022/04/26 07:49:13;;;;;;;2.00;0.80;;;8.90;99.90;;;;;;5054724;28;20049;-66
2022/04/26 07:51:41;;;;;;;1.27;0.43;;;9.00;99.90;;;;;;5035457;28;21004;-72
2022/04/26 07:54:11;;;;;;;3.88;0.93;;;9.10;99.90;;;;;;5033577;28;20155;-65
2022/04/26 07:56:38;;;;;;;4.88;0.82;;;9.10;99.90;;;;;;5032599;28;20121;-70
2022/04/26 07:59:06;;;;;;;3.70;0.82;;;9.00;99.90;;;;;;5027826;28;20053;-67
2022/04/26 08:01:35;;;;;;;1.15;0.63;;;9.10;99.90;;;;;;5025245;28;20716;-69
2022/04/26 08:04:02;;;;;;;2.90;0.70;;;9.10;99.90;;;;;;5028048;28;20045;-68
2022/04/26 08:06:30;;;;;;;1.05;0.80;;;9.10;99.90;;;;;;5028092;28;20045;-66
2022/04/26 08:08:58;;;;;;;2.05;0.75;;;9.00;99.90;;;;;;5008500;28;20033;-68
2022/04/26 08:11:28;;;;;;;1.38;0.52;;;8.90;99.90;;;;;;5034582;28;20041;-67
2022/04/26 08:13:55;;;;;;;1.17;0.60;;;8.90;99.90;;;;;;5034630;28;20127;-64
2022/04/26 08:16:23;;;;;;;0.57;0.57;;;8.70;99.90;;;;;;5029319;28;20286;-66
2022/04/26 08:18:50;;;;;;;3.05;0.80;;;8.60;99.90;;;;;;5033926;28;20146;-64
2022/04/26 08:21:17;;;;;;;4.28;0.80;;;8.50;99.90;;;;;;5033938;28;20152;-66
2022/04/26 08:29:26;;;;;;;4.32;0.70;;;8.50;99.90;;;;;;5027321;28;20053;-66
2022/04/26 08:31:55;;;;;;;1.10;0.90;;;8.50;99.90;;;;;;5024243;28;20055;-68
2022/04/26 08:34:23;;;;;;;1.70;0.90;;;8.40;99.90;;;;;;5026347;28;20729;-68
2022/04/26 08:36:50;;;;;;;3.72;0.80;;;8.20;99.90;;;;;;5027209;28;20127;-65
2022/04/26 08:39:17;;;;;;;3.63;0.77;;;8.20;99.90;;;;;;5033076;28;20092;-63
2022/04/26 08:41:44;;;;;;;2.17;0.82;;;8.10;99.90;;;;;;5033456;28;20139;-70
2022/04/26 08:44:11;;;;;;;3.85;1.10;;;8.00;99.90;;;;;;5030277;28;20049;-67
2022/04/26 08:52:11;;;;;;;3.55;0.90;;;7.80;99.90;;;;;;5020577;28;20687;-67
2022/04/26 08:54:38;;;;;;;3.70;1.25;;;7.90;99.90;;;;;;5023957;28;20041;-64
2022/04/26 08:57:11;;;;;;;2.40;0.98;;;8.00;99.90;;;;;;5025627;28;20049;-65
2022/04/26 08:59:50;;;;;;;5.23;1.93;;;7.90;99.90;;;;;;5027761;28;20065;-65
2022/04/26 09:02:19;;;;;;;1.58;0.50;;;7.80;99.90;;;;;;5026696;28;20294;-66
2022/04/26 09:04:59;;;;;;;0.70;0.63;;;7.80;99.90;;;;;;5022866;28;20053;-66
2022/04/26 09:07:34;;;;;;;4.28;1.50;;;7.80;99.90;;;;;;5028235;28;20041;-67
2022/04/26 09:10:09;;;;;;;0.73;0.70;;;7.70;99.90;;;;;;5027682;28;20452;-66
2022/04/26 09:13:01;;;;;;;5.47;1.50;;;7.60;99.90;;;;;;5026382;28;20068;-65
2022/04/26 09:15:38;;;;;;;2.97;0.95;;;7.60;99.90;;;;;;5027437;28;20135;-65
2022/04/26 09:18:31;;;;;;;2.38;0.98;;;7.60;99.90;;;;;;5024024;28;20063;-65
2022/04/26 09:21:09;;;;;;;1.38;0.73;;;7.70;99.90;;;;;;5023075;28;20099;-66
2022/04/26 09:23:38;;;;;;;2.05;0.88;;;7.80;99.90;;;;;;5027559;28;20581;-68
2022/04/26 09:26:07;;;;;;;2.92;0.90;;;7.80;99.90;;;;;;5033827;28;20131;-69
2022/04/26 09:28:37;;;;;;;4.55;0.70;;;7.90;99.90;;;;;;5021658;28;20056;-65
2022/04/26 09:31:18;;;;;;;2.75;1.15;;;7.90;99.90;;;;;;5027309;28;20053;-66
2022/04/26 09:33:51;;;;;;;2.92;1.38;;;8.00;99.90;;;;;;5028894;28;20056;-64
2022/04/26 09:36:24;;;;;;;3.80;1.08;;;8.00;99.90;;;;;;5023497;28;20053;-70
2022/04/26 09:38:59;;;;;;;8.43;0.90;;;7.90;99.90;;;;;;5029028;28;20041;-66
2022/04/26 09:41:28;;;;;;;3.45;1.15;;;7.80;99.90;;;;;;5028924;28;21265;-69
2022/04/26 09:44:06;;;;;;;1.70;0.75;;;7.90;99.90;;;;;;5025274;28;20052;-65
2022/04/26 09:46:49;;;;;;;5.22;0.80;;;7.80;99.90;;;;;;5022419;28;20052;-67
2022/04/26 09:49:24;;;;;;;1.58;1.00;;;7.90;99.90;;;;;;5025916;28;20935;-65
2022/04/26 09:51:59;;;;;;;2.05;0.73;;;7.90;99.90;;;;;;5025007;28;20143;-68
2022/04/26 09:54:26;;;;;;;4.85;3.20;;;8.00;99.90;;;;;;5022675;28;20134;-65
2022/04/26 09:56:53;;;;;;;3.67;1.27;;;8.10;99.90;;;;;;5025401;28;20051;-64
2022/04/26 09:59:27;;;;;;;1.98;0.60;;;8.00;99.90;;;;;;5023551;28;20045;-69
2022/04/26 10:01:56;;;;;;;2.95;1.10;;;8.00;99.90;;;;;;5020973;28;20187;-67
2022/04/26 10:04:29;;;;;;;4.63;0.95;;;8.10;99.90;;;;;;5022991;28;20077;-68
2022/04/26 10:07:12;;;;;;;2.15;0.90;;;8.10;99.90;;;;;;5028048;28;20045;-66
2022/04/26 10:09:40;;;;;;;3.67;0.60;;;8.10;99.90;;;;;;5023675;28;20444;-71
2022/04/26 10:12:08;;;;;;;2.83;0.80;;;8.10;99.90;;;;;;5023087;28;20052;-67
2022/04/26 10:14:36;;;;;;;2.78;0.60;;;8.10;99.90;;;;;;5023982;28;20154;-69
2022/04/26 10:17:03;;;;;;;6.90;1.40;;;8.10;99.90;;;;;;5018693;28;20167;-66
2022/04/26 10:19:42;;;;;;;1.88;0.47;;;8.10;99.90;;;;;;5023879;28;20037;-67
2022/04/26 10:22:11;;;;;;;0.88;0.50;;;8.20;99.90;;;;;;5023908;28;20051;-69
2022/04/26 10:24:40;;;;;;;2.97;1.95;;;8.20;99.90;;;;;;5021658;28;20052;-69
2022/04/26 10:27:23;;;;;;;1.10;0.60;;;8.30;99.90;;;;;;5025538;28;20049;-68
2022/04/26 10:29:50;;;;;;;1.45;1.10;;;8.20;99.90;;;;;;5017725;28;20049;-68
2022/04/26 10:32:34;;;;;;;0.70;0.60;;;8.10;99.90;;;;;;5024183;28;20053;-69
2022/04/26 10:35:23;;;;;;;2.35;0.82;;;7.80;99.90;;;;;;5027855;28;21378;-70
2022/04/26 10:38:12;;;;;;;1.52;0.80;;;7.80;99.90;;;;;;5028389;28;20145;-69
2022/04/26 10:41:07;;;;;;;3.15;0.63;;;7.70;99.90;;;;;;5022856;28;20503;-70
2022/04/26 10:43:34;;;;;;;1.60;1.02;;;7.80;99.90;;;;;;5026397;28;20064;-65
2022/04/26 10:46:27;;;;;;;1.30;0.82;;;7.90;99.90;;;;;;5027101;28;20049;-63
2022/04/26 10:48:56;;;;;;;1.85;0.70;;;7.90;99.90;;;;;;5021471;28;20045;-67
2022/04/26 10:51:36;;;;;;;2.17;0.85;;;8.00;99.90;;;;;;5025472;28;20045;-68
2022/04/26 10:54:04;;;;;;;1.30;0.50;;;8.00;99.90;;;;;;5033992;28;20223;-67
2022/04/26 10:56:32;;;;;;;1.42;0.70;;;7.90;99.90;;;;;;5025090;28;20052;-67
2022/04/26 10:58:59;;;;;;;2.60;0.60;;;8.00;99.90;;;;;;5021164;28;20045;-67
2022/04/26 11:01:29;;;;;;;1.65;0.60;;;8.10;99.90;;;;;;5022895;28;20187;-68
2022/04/26 11:03:58;;;;;;;4.22;1.90;;;8.10;99.90;;;;;;5031157;28;20057;-65
2022/04/26 11:06:36;;;;;;;2.55;0.93;;;8.10;99.90;;;;;;5028540;28;20390;-67
2022/04/26 11:09:14;;;;;;;4.60;0.88;;;8.10;99.90;;;;;;5031795;28;20561;-67
2022/04/26 11:11:55;;;;;;;2.30;0.95;;;8.20;99.90;;;;;;5026948;28;20182;-65
2022/04/26 11:14:24;;;;;;;2.15;0.68;;;8.10;99.90;;;;;;5029264;28;20037;-71
2022/04/26 11:16:59;;;;;;;0.60;0.60;;;8.20;99.90;;;;;;5030287;28;20049;-67
2022/04/26 11:19:33;;;;;;;1.55;0.75;;;8.10;99.90;;;;;;5028728;28;20875;-65
2022/04/26 11:22:14;;;;;;;2.60;0.57;;;8.30;99.90;;;;;;5027383;28;20045;-64
2022/04/26 11:30:23;;;;;;;;;;;7.90;99.90;;;;;;5028665;28;21673;-66
2022/04/26 11:32:50;;;;;;;2.03;0.88;;;7.70;99.90;;;;;;5028027;28;19959;-69
2022/04/26 11:35:20;;;;;;;5.18;1.17;;;7.80;99.90;;;;;;5029910;28;20777;-67
2022/04/26 11:37:50;;;;;;;4.75;0.90;;;7.80;99.90;;;;;;5013490;28;20041;-66
2022/04/26 11:40:25;;;;;;;4.00;1.20;;;7.80;99.90;;;;;;5026424;28;20064;-68
2022/04/26 11:42:55;;;;;;;3.05;0.68;;;7.90;99.90;;;;;;5029285;28;20056;-71
2022/04/26 11:45:28;;;;;;;2.05;0.85;;;8.00;99.90;;;;;;5036407;28;20056;-68
2022/04/26 11:47:57;;;;;;;4.70;0.75;;;8.10;99.90;;;;;;5035297;28;20036;-67
2022/04/26 11:50:29;;;;;;;3.50;1.23;;;8.10;99.90;;;;;;5033789;28;20055;-66
2022/04/26 11:53:16;;;;;;;2.38;0.82;;;8.00;99.90;;;;;;5035307;28;20152;-68
2022/04/26 11:55:50;;;;;;;2.55;0.88;;;7.90;99.90;;;;;;5035117;28;20055;-67
2022/04/26 11:58:20;;;;;;;3.33;0.93;;;7.90;99.90;;;;;;5025338;28;20045;-68
2022/04/26 12:00:54;;;;;;;5.03;1.40;;;7.80;99.90;;;;;;5025441;28;20748;-65
2022/04/26 12:03:23;;;;;;;5.88;0.90;;;7.80;99.90;;;;;;5027015;28;20050;-68
2022/04/26 12:05:58;;;;;;;2.15;0.70;;;7.90;99.90;;;;;;5024666;28;21294;-64
2022/04/26 12:08:28;;;;;;;2.85;1.27;;;8.00;99.90;;;;;;5025572;28;20207;-65
2022/04/26 12:11:21;;;;;;;2.15;0.93;;;8.10;99.90;;;;;;5027682;28;20057;-66
2022/04/26 12:14:01;;;;;;;4.32;1.65;;;8.10;99.90;;;;;;5026048;28;20487;-69
2022/04/26 12:16:29;;;;;;;4.83;1.10;;;8.20;99.90;;;;;;5024357;28;20104;-66
2022/04/26 12:18:58;;;;;;;4.57;1.58;;;8.30;99.90;;;;;;5027142;28;20164;-69
2022/04/26 12:21:29;;;;;;;5.07;0.80;;;8.30;99.90;;;;;;5029754;28;20057;-63
2022/04/26 12:24:16;;;;;;;2.00;1.52;;;8.30;99.90;;;;;;5026044;28;20637;-63
2022/04/26 12:27:02;;;;;;;2.25;1.35;;;8.30;99.90;;;;;;5025587;28;21311;-66
2022/04/26 12:29:35;;;;;;;3.40;0.70;;;8.40;99.90;;;;;;5029247;28;20048;-69
2022/04/26 12:32:08;;;;;;;3.85;0.90;;;8.40;99.90;;;;;;5025308;28;20074;-64
2022/04/26 12:34:36;;;;;;;3.22;1.15;;;8.50;99.90;;;;;;5031827;28;20075;-67
2022/04/26 12:37:07;;;;;;;2.33;0.93;;;8.50;99.90;;;;;;5031412;28;20148;-67
2022/04/26 12:39:41;;;;;;;3.75;0.50;;;8.70;99.90;;;;;;5011838;28;20056;-68
2022/04/26 12:42:30;;;;;;;2.25;0.50;;;8.60;99.90;;;;;;5025958;28;20432;-70
2022/04/26 12:44:59;;;;;;;12.93;1.27;;;8.40;99.90;;;;;;5018996;28;20159;-67
2022/04/26 12:50:28;;;;;;;4.25;0.93;;;8.50;99.90;;;;;;5029810;28;20057;-66
2022/04/26 12:53:01;;;;;;;4.22;0.90;;;8.60;99.90;;;;;;5028896;28;20502;-67
2022/04/26 12:55:41;;;;;;;2.00;0.57;;;8.60;99.90;;;;;;5033441;28;20391;-68
2022/04/26 12:58:09;;;;;;;0.32;0.22;;;8.50;99.90;;;;;;5030620;28;20106;-69
2022/04/26 13:00:45;;;;;;;0.85;0.77;;;8.60;99.90;;;;;;5032893;28;20073;-66
2022/04/26 13:03:16;;;;;;;0.60;0.40;;;8.70;99.90;;;;;;5031188;28;20186;-66
2022/04/26 13:06:13;;;;;;;1.30;0.50;;;8.70;99.90;;;;;;5034075;28;20048;-66
2022/04/26 13:09:00;;;;;;;2.03;0.60;;;8.70;99.90;;;;;;5031056;28;20171;-66
2022/04/26 13:11:32;;;;;;;4.53;0.77;;;8.80;99.90;;;;;;5032414;28;20513;-67
2022/04/26 13:13:59;;;;;;;1.50;0.40;;;9.00;99.90;;;;;;5034062;28;20060;-65
2022/04/26 13:16:26;;;;;;;2.70;0.50;;;9.20;99.90;;;;;;5031050;28;20057;-63
2022/04/26 13:18:53;;;;;;;1.85;0.90;;;9.40;99.90;;;;;;5029224;28;20057;-64
2022/04/26 13:21:20;;;;;;;0.73;0.73;;;9.50;99.90;;;;;;5031495;28;20178;-67
2022/04/26 13:23:47;;;;;;;1.00;0.55;;;9.50;99.90;;;;;;5033106;28;20051;-69
2022/04/26 13:26:14;;;;;;;1.45;0.90;;;9.60;99.90;;;;;;5028180;28;20071;-67
2022/04/26 13:28:40;;;;;;;0.90;0.63;;;9.80;99.90;;;;;;5028671;28;20044;-66
2022/04/26 13:31:07;;;;;;;4.50;1.20;;;9.90;99.90;;;;;;5029069;28;20571;-65
2022/04/26 13:33:34;;;;;;;2.33;0.50;;;10.10;99.90;;;;;;5024593;28;20709;-66
2022/04/26 13:36:01;;;;;;;0.95;0.88;;;10.40;99.90;;;;;;5021579;28;20215;-68
2022/04/26 13:38:28;;;;;;;1.35;0.65;;;10.60;99.90;;;;;;5024047;28;20159;-67
2022/04/26 13:40:56;;;;;;;4.32;0.80;;;10.80;99.90;;;;;;5026884;28;20156;-66
2022/04/26 13:43:24;;;;;;;0.52;0.40;;;10.70;99.90;;;;;;5024118;28;20045;-65
2022/04/26 13:46:11;;;;;;;2.50;0.57;;;10.60;99.90;;;;;;5025163;28;20398;-67
2022/04/26 13:48:38;;;;;;;4.38;0.60;;;10.60;99.90;;;;;;5025737;28;20041;-64
2022/04/26 13:51:05;;;;;;;1.42;0.50;;;10.40;99.90;;;;;;5025483;28;20183;-67
2022/04/26 13:53:32;;;;;;;2.47;0.47;;;10.40;99.90;;;;;;5029890;28;20049;-68
2022/04/26 13:56:00;;;;;;;0.95;0.50;;;10.20;99.90;;;;;;5027685;28;20061;-67
2022/04/26 13:58:27;;;;;;;1.40;0.20;;;10.10;99.90;;;;;;5027061;28;20041;-68
2022/04/26 14:00:54;;;;;;;1.13;0.40;;;10.00;99.90;;;;;;5028890;28;20040;-66
2022/04/26 14:03:22;;;;;;;0.50;0.40;;;9.90;99.90;;;;;;5028365;28;20041;-66
2022/04/26 14:05:49;;;;;;;2.22;1.00;;;9.90;99.90;;;;;;5028479;28;20665;-66
2022/04/26 14:08:15;;;;;;;1.75;0.47;;;9.90;99.90;;;;;;5025138;28;20136;-66
2022/04/26 14:10:42;;;;;;;1.48;0.20;;;9.80;99.90;;;;;;5029168;28;20140;-68
2022/04/26 14:13:09;;;;;;;0.70;0.35;;;9.80;99.90;;;;;;5033398;28;20134;-66
2022/04/26 14:23:53;;;;;;;4.07;0.77;;;9.80;99.90;;;;;;5025163;28;20403;-67
2022/04/26 14:26:20;;;;;;;0.77;0.45;;;9.90;99.90;;;;;;5026108;28;20140;-70
2022/04/26 14:28:47;;;;;;;0.52;0.22;;;9.90;99.90;;;;;;5026888;28;20053;-65
2022/04/26 14:31:14;;;;;;;1.20;0.30;;;9.90;99.90;;;;;;5028109;28;20056;-67
2022/04/26 14:33:41;;;;;;;2.80;0.57;;;9.90;99.90;;;;;;5030530;28;20053;-68
2022/04/26 14:36:08;;;;;;;1.35;0.40;;;9.90;99.90;;;;;;5027227;28;20037;-67
2022/04/26 14:38:35;;;;;;;1.35;0.85;;;9.90;99.90;;;;;;5023345;28;20049;-66
2022/04/26 14:41:01;;;;;;;1.95;0.55;;;9.90;99.90;;;;;;5028285;28;20152;-69
2022/04/26 14:43:28;;;;;;;3.42;1.08;;;9.90;99.90;;;;;;5028510;28;20091;-66
2022/04/26 14:45:55;;;;;;;1.95;0.70;;;9.80;99.90;;;;;;5028523;28;20053;-68
2022/04/26 14:48:23;;;;;;;5.28;0.88;;;9.60;99.90;;;;;;5026129;28;20985;-69
2022/04/26 14:50:54;;;;;;;4.10;0.52;;;9.60;99.90;;;;;;5029311;28;20221;-65
2022/04/26 14:53:22;;;;;;;0.75;0.47;;;9.60;99.90;;;;;;5029540;28;20041;-65
2022/04/26 14:56:04;;;;;;;1.15;0.28;;;9.60;99.90;;;;;;5026236;28;21404;-66
2022/04/26 14:58:33;;;;;;;2.53;0.20;;;9.60;99.90;;;;;;5028911;28;20049;-69
2022/04/26 15:01:00;;;;;;;4.68;0.43;;;9.60;99.90;;;;;;5030394;28;20056;-68
2022/04/26 15:03:28;;;;;;;1.25;0.45;;;9.70;99.90;;;;;;5031250;28;20564;-67
2022/04/26 15:05:55;;;;;;;1.27;0.22;;;9.80;99.90;;;;;;5032177;28;20470;-66
2022/04/26 15:11:08;;;;;;;0.52;0.43;;;9.90;99.70;;;;;;5030281;28;20044;-68
2022/04/26 15:16:39;;;;;;;2.00;0.75;;;10.00;99.50;;;;;;5029783;28;20077;-67
2022/04/26 15:19:11;;;;;;;0.25;0.22;;;10.10;99.30;;;;;;5031524;28;20073;-65
2022/04/26 15:21:39;;;;;;;2.42;0.40;;;10.10;99.40;;;;;;5031529;28;20246;-68
2022/04/26 15:24:06;;;;;;;1.35;0.57;;;10.10;99.90;;;;;;5029766;28;20045;-69
2022/04/26 15:26:34;;;;;;;2.42;0.75;;;10.10;99.90;;;;;;5027173;28;20048;-65
2022/04/26 15:29:01;;;;;;;3.72;0.60;;;10.10;99.90;;;;;;5031619;28;21008;-64
2022/04/26 15:31:34;;;;;;;0.57;0.30;;;10.10;99.90;;;;;;5029186;28;20554;-68
2022/04/26 15:34:02;;;;;;;2.22;0.60;;;10.20;99.90;;;;;;5027602;28;20065;-65
2022/04/26 15:36:29;;;;;;;2.15;0.40;;;10.30;99.90;;;;;;5026921;28;20041;-67
2022/04/26 15:38:58;;;;;;;1.60;0.40;;;10.20;98.70;;;;;;5025129;28;20124;-65
2022/04/26 15:41:26;;;;;;;1.40;0.37;;;10.10;99.30;;;;;;5026442;28;20585;-66
2022/04/26 15:43:53;;;;;;;1.58;0.68;;;10.10;99.30;;;;;;5023756;28;20055;-66
2022/04/26 15:46:39;;;;;;;0.52;0.40;;;10.00;98.90;;;;;;5025818;28;20045;-68
2022/04/26 15:49:06;;;;;;;2.92;0.70;;;10.00;98.70;;;;;;5031520;28;20079;-66
2022/04/26 15:51:34;;;;;;;0.32;0.20;;;9.90;98.30;;;;;;5043315;28;20057;-68
2022/04/26 15:54:02;;;;;;;0.70;0.32;;;9.90;98.10;;;;;;5027418;28;20719;-68
2022/04/26 15:56:29;;;;;;;1.65;0.57;;;9.90;98.40;;;;;;5026325;28;20041;-66
2022/04/26 15:58:56;;;;;;;3.17;1.20;;;10.00;97.50;;;;;;5021219;28;20063;-67
2022/04/26 16:01:25;;;;;;;1.45;0.32;;;10.10;97.60;;;;;;5027583;28;20049;-69
2022/04/26 16:03:54;;;;;;;1.08;0.40;;;10.10;97.40;;;;;;5027089;28;20057;-66
2022/04/26 16:06:20;;;;;;;0.57;0.50;;;10.20;96.90;;;;;;5025951;28;20057;-64
2022/04/26 16:08:47;;;;;;;1.00;0.43;;;10.20;96.30;;;;;;5030200;28;20041;-63
2022/04/26 16:22:19;;;;;;;6.25;2.30;;;10.10;96.30;;;;;;5029579;28;20049;-64
2022/04/26 16:24:46;;;;;;;0.80;0.40;;;9.90;96.30;;;;;;5030054;28;20168;-63
2022/04/26 16:27:13;;;;;;;9.15;0.60;;;9.80;95.90;;;;;;5029640;28;20152;-66
2022/04/26 16:29:40;;;;;;;0.75;0.55;;;9.60;96.60;;;;;;5027629;28;20246;-64
2022/04/26 16:32:07;;;;;;;1.52;0.35;;;9.50;97.20;;;;;;5028936;28;20061;-63
2022/04/26 16:34:34;;;;;;;1.17;0.28;;;9.50;97.00;;;;;;5030285;28;20045;-66
2022/04/26 16:37:02;;;;;;;0.57;0.57;;;9.40;96.60;;;;;;5029647;28;20045;-63
2022/04/26 16:39:29;;;;;;;1.83;0.90;;;9.40;96.50;;;;;;5027544;28;20053;-64
2022/04/26 16:41:56;;;;;;;2.22;0.75;;;9.30;96.10;;;;;;5027659;28;20116;-67
2022/04/26 16:44:23;;;;;;;7.82;0.60;;;9.30;96.00;;;;;;5024819;28;20045;-70
2022/04/26 16:46:50;;;;;;;13.02;1.05;;;9.20;98.90;;;;;;5020404;28;20049;-66
2022/04/26 16:49:17;;;;;;;6.75;0.75;;;9.20;99.90;;;;;;5024873;28;20091;-69
2022/04/26 16:51:44;;;;;;;2.60;0.60;;;9.10;99.90;;;;;;5025207;28;20132;-65
2022/04/26 16:54:12;;;;;;;6.13;1.52;;;9.00;99.90;;;;;;5010161;28;20996;-69
2022/04/26 16:56:44;;;;;;;1.13;0.80;;;9.00;99.90;;;;;;5024228;28;20398;-69
2022/04/26 16:59:13;;;;;;;1.83;0.60;;;9.00;99.90;;;;;;5024209;28;20053;-69
2022/04/26 17:01:41;;;;;;;2.00;0.60;;;9.00;99.90;;;;;;5015364;28;20171;-70
2022/04/26 17:04:12;;;;;;;0.98;0.73;;;9.00;99.90;;;;;;5022446;28;20503;-66
2022/04/26 17:06:40;;;;;;;1.38;0.73;;;9.00;99.90;;;;;;5025453;28;20486;-68
2022/04/26 17:09:07;;;;;;;3.35;1.10;;;9.00;99.90;;;;;;5021360;28;20048;-69
2022/04/26 17:11:44;;;;;;;4.03;1.20;;;9.00;99.90;;;;;;5023734;28;20041;-67
2022/04/26 17:14:16;;;;;;;2.45;0.50;;;9.00;99.90;;;;;;5023312;28;20059;-69
2022/04/26 17:16:46;;;;;;;1.58;0.63;;;9.10;99.90;;;;;;5023563;28;20144;-71
2022/04/26 17:19:14;;;;;;;1.45;1.13;;;9.20;99.90;;;;;;5020842;28;20056;-65
2022/04/26 17:21:41;;;;;;;1.35;0.63;;;9.10;99.90;;;;;;5026363;28;20123;-66
2022/04/26 17:26:56;;;;;;;8.48;1.70;;;8.80;99.90;;;;;;5026736;28;20497;-64
2022/04/26 17:29:23;;;;;;;1.00;0.80;;;8.60;99.90;;;;;;5024201;28;20044;-65
2022/04/26 17:31:51;;;;;;;2.15;1.00;;;8.50;99.90;;;;;;5027838;28;20171;-67
2022/04/26 17:34:19;;;;;;;1.52;0.57;;;8.50;99.90;;;;;;5020989;28;20053;-65
2022/04/26 17:36:47;;;;;;;1.25;0.55;;;8.40;99.90;;;;;;5027311;28;20053;-65